sensor_id;sensor_type;location;lat;lon;timestamp;P1;durP1;ratioP1;P2;durP2;ratioP2
12042;SDS011;6082;49.306;12.862;2022-07-06T00:01:34;4.13;;;2.43;;
12042;SDS011;6082;49.306;12.862;2022-07-06T00:04:03;2.70;;;2.00;;
12042;SDS011;6082;49.306;12.862;2022-07-06T00:06:30;1.87;;;1.77;;
12042;SDS011;6082;49.306;12.862;2022-07-06T00:08:56;2.50;;;2.10;;
12042;SDS011;6082;49.306;12.862;2022-07-06T00:11:22;2.10;;;1.90;;
12042;SDS011;6082;49.306;12.862;2022-07-06T00:13:47;2.27;;;2.07;;
12042;SDS011;6082;49.306;12.862;2022-07-06T00:16:13;2.67;;;1.90;;
12042;SDS011;6082;49.306;12.862;2022-07-06T00:18:39;2.23;;;1.87;;
12042;SDS011;6082;49.306;12.862;2022-07-06T00:21:05;3.07;;;1.97;;
12042;SDS011;6082;49.306;12.862;2022-07-06T00:23:31;2.30;;;2.10;;
12042;SDS011;6082;49.306;12.862;2022-07-06T00:25:57;2.10;;;1.90;;
12042;SDS011;6082;49.306;12.862;2022-07-06T00:28:23;2.80;;;2.47;;
12042;SDS011;6082;49.306;12.862;2022-07-06T00:30:48;2.20;;;2.00;;
12042;SDS011;6082;49.306;12.862;2022-07-06T00:33:14;2.70;;;2.20;;
12042;SDS011;6082;49.306;12.862;2022-07-06T00:35:40;2.17;;;1.97;;
12042;SDS011;6082;49.306;12.862;2022-07-06T00:38:06;1.87;;;1.73;;
12042;SDS011;6082;49.306;12.862;2022-07-06T00:40:31;2.53;;;2.10;;
12042;SDS011;6082;49.306;12.862;2022-07-06T00:42:57;2.00;;;1.87;;
12042;SDS011;6082;49.306;12.862;2022-07-06T00:45:23;2.37;;;2.00;;
12042;SDS011;6082;49.306;12.862;2022-07-06T00:47:49;2.60;;;2.13;;
12042;SDS011;6082;49.306;12.862;2022-07-06T00:50:16;2.37;;;2.17;;
12042;SDS011;6082;49.306;12.862;2022-07-06T00:52:52;2.43;;;2.23;;
12042;SDS011;6082;49.306;12.862;2022-07-06T00:55:26;2.30;;;2.13;;
12042;SDS011;6082;49.306;12.862;2022-07-06T00:57:53;2.83;;;2.40;;
12042;SDS011;6082;49.306;12.862;2022-07-06T01:00:21;2.80;;;2.50;;
12042;SDS011;6082;49.306;12.862;2022-07-06T01:02:48;3.97;;;2.50;;
12042;SDS011;6082;49.306;12.862;2022-07-06T01:05:14;2.70;;;2.50;;
12042;SDS011;6082;49.306;12.862;2022-07-06T01:07:41;2.50;;;2.30;;
12042;SDS011;6082;49.306;12.862;2022-07-06T01:10:09;2.53;;;2.33;;
12042;SDS011;6082;49.306;12.862;2022-07-06T01:12:36;4.03;;;2.30;;
12042;SDS011;6082;49.306;12.862;2022-07-06T01:15:03;2.60;;;2.40;;
12042;SDS011;6082;49.306;12.862;2022-07-06T01:17:32;3.53;;;2.60;;
12042;SDS011;6082;49.306;12.862;2022-07-06T01:20:04;2.50;;;2.30;;
12042;SDS011;6082;49.306;12.862;2022-07-06T01:22:51;4.00;;;2.13;;
12042;SDS011;6082;49.306;12.862;2022-07-06T01:25:19;2.30;;;2.10;;
12042;SDS011;6082;49.306;12.862;2022-07-06T01:27:46;3.03;;;2.57;;
12042;SDS011;6082;49.306;12.862;2022-07-06T01:30:16;2.83;;;2.30;;
12042;SDS011;6082;49.306;12.862;2022-07-06T01:32:43;2.70;;;2.37;;
12042;SDS011;6082;49.306;12.862;2022-07-06T01:35:10;2.67;;;2.23;;
12042;SDS011;6082;49.306;12.862;2022-07-06T01:37:38;2.73;;;2.40;;
12042;SDS011;6082;49.306;12.862;2022-07-06T01:40:05;2.50;;;2.30;;
12042;SDS011;6082;49.306;12.862;2022-07-06T01:42:32;2.57;;;2.37;;
12042;SDS011;6082;49.306;12.862;2022-07-06T01:44:59;3.43;;;2.50;;
12042;SDS011;6082;49.306;12.862;2022-07-06T01:47:25;2.63;;;2.43;;
12042;SDS011;6082;49.306;12.862;2022-07-06T01:49:50;3.53;;;2.40;;
12042;SDS011;6082;49.306;12.862;2022-07-06T01:52:16;3.30;;;2.30;;
12042;SDS011;6082;49.306;12.862;2022-07-06T01:54:42;2.37;;;2.17;;
12042;SDS011;6082;49.306;12.862;2022-07-06T01:57:08;2.70;;;2.20;;
12042;SDS011;6082;49.306;12.862;2022-07-06T01:59:34;2.43;;;2.23;;
12042;SDS011;6082;49.306;12.862;2022-07-06T02:02:00;3.80;;;2.60;;
12042;SDS011;6082;49.306;12.862;2022-07-06T02:04:26;2.47;;;2.27;;
12042;SDS011;6082;49.306;12.862;2022-07-06T02:06:52;2.47;;;2.27;;
12042;SDS011;6082;49.306;12.862;2022-07-06T02:09:18;2.40;;;2.20;;
12042;SDS011;6082;49.306;12.862;2022-07-06T02:11:44;3.33;;;2.37;;
12042;SDS011;6082;49.306;12.862;2022-07-06T02:14:09;2.80;;;2.60;;
12042;SDS011;6082;49.306;12.862;2022-07-06T02:16:35;2.40;;;2.20;;
12042;SDS011;6082;49.306;12.862;2022-07-06T02:19:01;3.07;;;2.60;;
12042;SDS011;6082;49.306;12.862;2022-07-06T02:21:27;2.90;;;2.37;;
12042;SDS011;6082;49.306;12.862;2022-07-06T02:23:53;2.37;;;2.17;;
12042;SDS011;6082;49.306;12.862;2022-07-06T02:26:19;2.20;;;2.10;;
12042;SDS011;6082;49.306;12.862;2022-07-06T02:28:45;2.30;;;2.10;;
12042;SDS011;6082;49.306;12.862;2022-07-06T02:31:12;3.23;;;2.93;;
12042;SDS011;6082;49.306;12.862;2022-07-06T02:33:39;2.57;;;2.37;;
12042;SDS011;6082;49.306;12.862;2022-07-06T02:36:05;2.80;;;2.20;;
12042;SDS011;6082;49.306;12.862;2022-07-06T02:38:32;2.80;;;2.50;;
12042;SDS011;6082;49.306;12.862;2022-07-06T02:40:57;2.47;;;2.23;;
12042;SDS011;6082;49.306;12.862;2022-07-06T02:43:23;2.97;;;2.63;;
12042;SDS011;6082;49.306;12.862;2022-07-06T02:45:49;2.43;;;2.23;;
12042;SDS011;6082;49.306;12.862;2022-07-06T02:48:15;2.57;;;2.03;;
12042;SDS011;6082;49.306;12.862;2022-07-06T02:50:41;2.60;;;2.23;;
12042;SDS011;6082;49.306;12.862;2022-07-06T02:53:06;2.53;;;2.33;;
12042;SDS011;6082;49.306;12.862;2022-07-06T02:55:32;2.40;;;2.20;;
12042;SDS011;6082;49.306;12.862;2022-07-06T02:57:58;3.27;;;2.30;;
12042;SDS011;6082;49.306;12.862;2022-07-06T03:00:24;4.00;;;2.30;;
12042;SDS011;6082;49.306;12.862;2022-07-06T03:02:50;3.30;;;3.00;;
12042;SDS011;6082;49.306;12.862;2022-07-06T03:05:15;2.90;;;2.60;;
12042;SDS011;6082;49.306;12.862;2022-07-06T03:07:41;3.10;;;2.80;;
12042;SDS011;6082;49.306;12.862;2022-07-06T03:10:07;2.53;;;2.30;;
12042;SDS011;6082;49.306;12.862;2022-07-06T03:12:33;2.70;;;2.50;;
12042;SDS011;6082;49.306;12.862;2022-07-06T03:14:58;3.10;;;2.27;;
12042;SDS011;6082;49.306;12.862;2022-07-06T03:17:24;3.07;;;2.77;;
12042;SDS011;6082;49.306;12.862;2022-07-06T03:19:50;2.90;;;2.60;;
12042;SDS011;6082;49.306;12.862;2022-07-06T03:22:17;3.00;;;2.77;;
12042;SDS011;6082;49.306;12.862;2022-07-06T03:24:43;3.20;;;2.90;;
12042;SDS011;6082;49.306;12.862;2022-07-06T03:27:09;3.00;;;2.73;;
12042;SDS011;6082;49.306;12.862;2022-07-06T03:29:35;2.80;;;2.47;;
12042;SDS011;6082;49.306;12.862;2022-07-06T03:32:00;3.40;;;3.00;;
12042;SDS011;6082;49.306;12.862;2022-07-06T03:34:26;4.73;;;2.73;;
12042;SDS011;6082;49.306;12.862;2022-07-06T03:36:52;3.00;;;2.70;;
12042;SDS011;6082;49.306;12.862;2022-07-06T03:39:18;2.50;;;2.30;;
12042;SDS011;6082;49.306;12.862;2022-07-06T03:41:43;2.60;;;2.40;;
12042;SDS011;6082;49.306;12.862;2022-07-06T03:44:09;2.73;;;2.53;;
12042;SDS011;6082;49.306;12.862;2022-07-06T03:46:35;3.73;;;3.03;;
12042;SDS011;6082;49.306;12.862;2022-07-06T03:49:01;2.80;;;2.53;;
12042;SDS011;6082;49.306;12.862;2022-07-06T03:51:26;3.13;;;2.57;;
12042;SDS011;6082;49.306;12.862;2022-07-06T03:53:52;4.17;;;2.77;;
12042;SDS011;6082;49.306;12.862;2022-07-06T03:56:18;3.90;;;2.77;;
12042;SDS011;6082;49.306;12.862;2022-07-06T03:58:52;3.40;;;2.83;;
12042;SDS011;6082;49.306;12.862;2022-07-06T04:01:18;3.53;;;2.50;;
12042;SDS011;6082;49.306;12.862;2022-07-06T04:03:44;4.20;;;2.77;;
12042;SDS011;6082;49.306;12.862;2022-07-06T04:06:10;2.97;;;2.67;;
12042;SDS011;6082;49.306;12.862;2022-07-06T04:08:35;2.90;;;2.47;;
12042;SDS011;6082;49.306;12.862;2022-07-06T04:11:01;3.20;;;2.90;;
12042;SDS011;6082;49.306;12.862;2022-07-06T04:13:27;2.77;;;2.50;;
12042;SDS011;6082;49.306;12.862;2022-07-06T04:15:53;2.70;;;2.20;;
12042;SDS011;6082;49.306;12.862;2022-07-06T04:18:19;3.00;;;2.70;;
12042;SDS011;6082;49.306;12.862;2022-07-06T04:20:45;3.10;;;2.80;;
12042;SDS011;6082;49.306;12.862;2022-07-06T04:23:10;3.10;;;2.80;;
12042;SDS011;6082;49.306;12.862;2022-07-06T04:25:36;2.90;;;2.60;;
12042;SDS011;6082;49.306;12.862;2022-07-06T04:28:02;3.20;;;2.33;;
12042;SDS011;6082;49.306;12.862;2022-07-06T04:30:28;2.63;;;2.33;;
12042;SDS011;6082;49.306;12.862;2022-07-06T04:32:54;3.20;;;2.90;;
12042;SDS011;6082;49.306;12.862;2022-07-06T04:35:20;3.40;;;3.10;;
12042;SDS011;6082;49.306;12.862;2022-07-06T04:37:46;3.10;;;2.90;;
12042;SDS011;6082;49.306;12.862;2022-07-06T04:40:13;3.13;;;2.73;;
12042;SDS011;6082;49.306;12.862;2022-07-06T04:42:39;3.03;;;2.80;;
12042;SDS011;6082;49.306;12.862;2022-07-06T04:45:05;3.63;;;3.10;;
12042;SDS011;6082;49.306;12.862;2022-07-06T04:47:31;4.13;;;2.80;;
12042;SDS011;6082;49.306;12.862;2022-07-06T04:49:57;2.83;;;2.60;;
12042;SDS011;6082;49.306;12.862;2022-07-06T04:52:23;3.37;;;2.83;;
12042;SDS011;6082;49.306;12.862;2022-07-06T04:54:49;3.73;;;3.43;;
12042;SDS011;6082;49.306;12.862;2022-07-06T04:57:15;3.50;;;3.00;;
12042;SDS011;6082;49.306;12.862;2022-07-06T04:59:40;5.23;;;3.10;;
12042;SDS011;6082;49.306;12.862;2022-07-06T05:02:06;2.80;;;2.57;;
12042;SDS011;6082;49.306;12.862;2022-07-06T05:04:32;3.73;;;3.33;;
12042;SDS011;6082;49.306;12.862;2022-07-06T05:07:01;3.30;;;3.00;;
12042;SDS011;6082;49.306;12.862;2022-07-06T05:09:27;3.23;;;2.87;;
12042;SDS011;6082;49.306;12.862;2022-07-06T05:11:52;4.30;;;3.00;;
12042;SDS011;6082;49.306;12.862;2022-07-06T05:14:18;2.87;;;2.63;;
12042;SDS011;6082;49.306;12.862;2022-07-06T05:16:44;4.23;;;2.67;;
12042;SDS011;6082;49.306;12.862;2022-07-06T05:19:09;3.43;;;2.90;;
12042;SDS011;6082;49.306;12.862;2022-07-06T05:21:35;2.97;;;2.70;;
12042;SDS011;6082;49.306;12.862;2022-07-06T05:24:01;4.73;;;3.20;;
12042;SDS011;6082;49.306;12.862;2022-07-06T05:26:27;3.83;;;2.93;;
12042;SDS011;6082;49.306;12.862;2022-07-06T05:28:52;5.83;;;3.00;;
12042;SDS011;6082;49.306;12.862;2022-07-06T05:31:21;3.43;;;2.80;;
12042;SDS011;6082;49.306;12.862;2022-07-06T05:33:47;2.80;;;2.57;;
12042;SDS011;6082;49.306;12.862;2022-07-06T05:36:13;6.27;;;3.13;;
12042;SDS011;6082;49.306;12.862;2022-07-06T05:38:39;2.97;;;2.73;;
12042;SDS011;6082;49.306;12.862;2022-07-06T05:41:05;2.60;;;2.40;;
12042;SDS011;6082;49.306;12.862;2022-07-06T05:43:31;3.37;;;3.07;;
12042;SDS011;6082;49.306;12.862;2022-07-06T05:45:56;3.97;;;3.10;;
12042;SDS011;6082;49.306;12.862;2022-07-06T05:48:22;3.53;;;3.20;;
12042;SDS011;6082;49.306;12.862;2022-07-06T05:51:06;2.93;;;2.47;;
12042;SDS011;6082;49.306;12.862;2022-07-06T05:53:32;4.77;;;3.07;;
12042;SDS011;6082;49.306;12.862;2022-07-06T05:55:58;3.00;;;2.70;;
12042;SDS011;6082;49.306;12.862;2022-07-06T05:58:23;3.40;;;2.73;;
12042;SDS011;6082;49.306;12.862;2022-07-06T06:00:50;4.30;;;2.90;;
12042;SDS011;6082;49.306;12.862;2022-07-06T06:03:16;3.13;;;2.83;;
12042;SDS011;6082;49.306;12.862;2022-07-06T06:05:42;3.40;;;2.67;;
12042;SDS011;6082;49.306;12.862;2022-07-06T06:08:07;2.80;;;2.60;;
12042;SDS011;6082;49.306;12.862;2022-07-06T06:10:33;2.73;;;2.53;;
12042;SDS011;6082;49.306;12.862;2022-07-06T06:12:59;2.40;;;2.20;;
12042;SDS011;6082;49.306;12.862;2022-07-06T06:15:25;2.57;;;2.37;;
12042;SDS011;6082;49.306;12.862;2022-07-06T06:17:51;2.93;;;2.63;;
12042;SDS011;6082;49.306;12.862;2022-07-06T06:20:17;3.13;;;2.30;;
12042;SDS011;6082;49.306;12.862;2022-07-06T06:22:49;2.90;;;2.43;;
12042;SDS011;6082;49.306;12.862;2022-07-06T06:25:18;2.87;;;2.57;;
12042;SDS011;6082;49.306;12.862;2022-07-06T06:28:05;3.00;;;2.53;;
12042;SDS011;6082;49.306;12.862;2022-07-06T06:30:33;2.70;;;2.50;;
12042;SDS011;6082;49.306;12.862;2022-07-06T06:35:35;2.60;;;2.40;;
12042;SDS011;6082;49.306;12.862;2022-07-06T06:38:02;3.40;;;2.67;;
12042;SDS011;6082;49.306;12.862;2022-07-06T06:40:28;3.73;;;2.50;;
12042;SDS011;6082;49.306;12.862;2022-07-06T06:42:54;3.70;;;2.80;;
12042;SDS011;6082;49.306;12.862;2022-07-06T06:45:19;3.17;;;2.87;;
12042;SDS011;6082;49.306;12.862;2022-07-06T06:47:48;3.23;;;2.40;;
12042;SDS011;6082;49.306;12.862;2022-07-06T06:50:14;3.93;;;2.63;;
12042;SDS011;6082;49.306;12.862;2022-07-06T06:52:39;2.90;;;2.53;;
12042;SDS011;6082;49.306;12.862;2022-07-06T06:55:05;3.10;;;2.70;;
12042;SDS011;6082;49.306;12.862;2022-07-06T06:57:31;2.87;;;2.60;;
12042;SDS011;6082;49.306;12.862;2022-07-06T06:59:57;2.73;;;2.53;;
12042;SDS011;6082;49.306;12.862;2022-07-06T07:02:23;2.63;;;2.43;;
12042;SDS011;6082;49.306;12.862;2022-07-06T07:04:49;2.73;;;2.50;;
12042;SDS011;6082;49.306;12.862;2022-07-06T07:07:15;3.10;;;2.80;;
12042;SDS011;6082;49.306;12.862;2022-07-06T07:09:40;2.50;;;2.30;;
12042;SDS011;6082;49.306;12.862;2022-07-06T07:12:06;4.17;;;2.60;;
12042;SDS011;6082;49.306;12.862;2022-07-06T07:14:32;3.27;;;2.70;;
12042;SDS011;6082;49.306;12.862;2022-07-06T07:16:58;5.23;;;2.70;;
12042;SDS011;6082;49.306;12.862;2022-07-06T07:19:24;2.77;;;2.57;;
12042;SDS011;6082;49.306;12.862;2022-07-06T07:21:49;2.70;;;2.50;;
12042;SDS011;6082;49.306;12.862;2022-07-06T07:24:15;6.70;;;2.70;;
12042;SDS011;6082;49.306;12.862;2022-07-06T07:26:41;2.93;;;2.37;;
12042;SDS011;6082;49.306;12.862;2022-07-06T07:29:07;2.97;;;2.43;;
12042;SDS011;6082;49.306;12.862;2022-07-06T07:31:33;2.60;;;2.40;;
12042;SDS011;6082;49.306;12.862;2022-07-06T07:33:58;5.07;;;2.37;;
12042;SDS011;6082;49.306;12.862;2022-07-06T07:36:27;2.73;;;2.43;;
12042;SDS011;6082;49.306;12.862;2022-07-06T07:38:53;2.23;;;2.03;;
12042;SDS011;6082;49.306;12.862;2022-07-06T07:41:19;2.47;;;2.27;;
12042;SDS011;6082;49.306;12.862;2022-07-06T07:43:44;2.47;;;2.27;;
12042;SDS011;6082;49.306;12.862;2022-07-06T07:46:10;2.80;;;2.50;;
12042;SDS011;6082;49.306;12.862;2022-07-06T07:48:36;3.07;;;2.57;;
12042;SDS011;6082;49.306;12.862;2022-07-06T07:51:02;2.87;;;2.50;;
12042;SDS011;6082;49.306;12.862;2022-07-06T07:53:27;2.87;;;2.50;;
12042;SDS011;6082;49.306;12.862;2022-07-06T07:55:53;2.87;;;2.20;;
12042;SDS011;6082;49.306;12.862;2022-07-06T07:58:19;2.20;;;2.00;;
12042;SDS011;6082;49.306;12.862;2022-07-06T08:00:45;5.93;;;2.30;;
12042;SDS011;6082;49.306;12.862;2022-07-06T08:03:11;2.60;;;2.40;;
12042;SDS011;6082;49.306;12.862;2022-07-06T08:05:37;2.50;;;2.10;;
12042;SDS011;6082;49.306;12.862;2022-07-06T08:08:03;2.30;;;2.10;;
12042;SDS011;6082;49.306;12.862;2022-07-06T08:10:29;2.47;;;2.27;;
12042;SDS011;6082;49.306;12.862;2022-07-06T08:12:55;3.47;;;2.10;;
12042;SDS011;6082;49.306;12.862;2022-07-06T08:15:20;2.97;;;1.90;;
12042;SDS011;6082;49.306;12.862;2022-07-06T08:17:46;2.47;;;2.13;;
12042;SDS011;6082;49.306;12.862;2022-07-06T08:20:12;2.40;;;2.13;;
12042;SDS011;6082;49.306;12.862;2022-07-06T08:22:38;2.10;;;2.00;;
12042;SDS011;6082;49.306;12.862;2022-07-06T08:25:05;2.50;;;2.30;;
12042;SDS011;6082;49.306;12.862;2022-07-06T08:27:31;2.80;;;2.50;;
12042;SDS011;6082;49.306;12.862;2022-07-06T08:29:58;2.77;;;2.30;;
12042;SDS011;6082;49.306;12.862;2022-07-06T08:32:25;2.83;;;2.43;;
12042;SDS011;6082;49.306;12.862;2022-07-06T08:34:51;2.87;;;2.30;;
12042;SDS011;6082;49.306;12.862;2022-07-06T08:37:18;2.40;;;2.10;;
12042;SDS011;6082;49.306;12.862;2022-07-06T08:39:44;3.57;;;2.60;;
12042;SDS011;6082;49.306;12.862;2022-07-06T08:42:10;3.97;;;2.40;;
12042;SDS011;6082;49.306;12.862;2022-07-06T08:44:37;3.10;;;2.03;;
12042;SDS011;6082;49.306;12.862;2022-07-06T08:47:04;2.40;;;2.17;;
12042;SDS011;6082;49.306;12.862;2022-07-06T08:49:33;2.70;;;2.17;;
12042;SDS011;6082;49.306;12.862;2022-07-06T08:52:02;2.60;;;2.40;;
12042;SDS011;6082;49.306;12.862;2022-07-06T08:54:29;2.70;;;2.50;;
12042;SDS011;6082;49.306;12.862;2022-07-06T08:56:55;2.10;;;1.90;;
12042;SDS011;6082;49.306;12.862;2022-07-06T08:59:22;3.20;;;2.20;;
12042;SDS011;6082;49.306;12.862;2022-07-06T09:01:47;2.73;;;1.90;;
12042;SDS011;6082;49.306;12.862;2022-07-06T09:04:15;2.40;;;2.20;;
12042;SDS011;6082;49.306;12.862;2022-07-06T09:06:42;3.03;;;2.30;;
12042;SDS011;6082;49.306;12.862;2022-07-06T09:09:10;2.20;;;2.00;;
12042;SDS011;6082;49.306;12.862;2022-07-06T09:11:43;2.07;;;1.97;;
12042;SDS011;6082;49.306;12.862;2022-07-06T09:14:09;2.50;;;2.00;;
12042;SDS011;6082;49.306;12.862;2022-07-06T09:16:35;2.30;;;2.10;;
12042;SDS011;6082;49.306;12.862;2022-07-06T09:19:01;2.30;;;2.10;;
12042;SDS011;6082;49.306;12.862;2022-07-06T09:21:28;2.67;;;2.47;;
12042;SDS011;6082;49.306;12.862;2022-07-06T09:23:58;2.00;;;1.90;;
12042;SDS011;6082;49.306;12.862;2022-07-06T09:26:25;3.20;;;2.30;;
12042;SDS011;6082;49.306;12.862;2022-07-06T09:28:52;2.43;;;2.23;;
12042;SDS011;6082;49.306;12.862;2022-07-06T09:31:20;3.60;;;2.30;;
12042;SDS011;6082;49.306;12.862;2022-07-06T09:33:53;2.33;;;2.13;;
12042;SDS011;6082;49.306;12.862;2022-07-06T09:36:39;3.00;;;2.23;;
12042;SDS011;6082;49.306;12.862;2022-07-06T09:39:14;2.63;;;2.30;;
12042;SDS011;6082;49.306;12.862;2022-07-06T09:41:47;2.00;;;1.90;;
12042;SDS011;6082;49.306;12.862;2022-07-06T09:44:21;2.00;;;1.90;;
12042;SDS011;6082;49.306;12.862;2022-07-06T09:46:47;2.10;;;1.90;;
12042;SDS011;6082;49.306;12.862;2022-07-06T09:49:16;2.27;;;1.80;;
12042;SDS011;6082;49.306;12.862;2022-07-06T09:51:44;1.90;;;1.80;;
12042;SDS011;6082;49.306;12.862;2022-07-06T09:54:11;1.90;;;1.80;;
12042;SDS011;6082;49.306;12.862;2022-07-06T09:56:42;2.37;;;2.17;;
12042;SDS011;6082;49.306;12.862;2022-07-06T09:59:13;2.17;;;1.97;;
12042;SDS011;6082;49.306;12.862;2022-07-06T10:01:40;2.30;;;2.20;;
12042;SDS011;6082;49.306;12.862;2022-07-06T10:04:07;2.37;;;2.17;;
12042;SDS011;6082;49.306;12.862;2022-07-06T10:06:34;2.50;;;2.30;;
12042;SDS011;6082;49.306;12.862;2022-07-06T10:09:00;2.20;;;2.00;;
12042;SDS011;6082;49.306;12.862;2022-07-06T10:11:26;2.30;;;2.10;;
12042;SDS011;6082;49.306;12.862;2022-07-06T10:13:57;2.97;;;2.03;;
12042;SDS011;6082;49.306;12.862;2022-07-06T10:16:23;2.20;;;2.00;;
12042;SDS011;6082;49.306;12.862;2022-07-06T10:18:50;2.10;;;1.90;;
12042;SDS011;6082;49.306;12.862;2022-07-06T10:21:19;2.03;;;1.90;;
12042;SDS011;6082;49.306;12.862;2022-07-06T10:23:49;1.77;;;1.67;;
12042;SDS011;6082;49.306;12.862;2022-07-06T10:26:16;2.40;;;2.10;;
12042;SDS011;6082;49.306;12.862;2022-07-06T10:28:43;2.20;;;2.00;;
12042;SDS011;6082;49.306;12.862;2022-07-06T10:31:12;2.57;;;1.90;;
12042;SDS011;6082;49.306;12.862;2022-07-06T10:33:40;2.33;;;2.23;;
12042;SDS011;6082;49.306;12.862;2022-07-06T10:36:10;1.80;;;1.70;;
12042;SDS011;6082;49.306;12.862;2022-07-06T10:38:37;2.07;;;1.80;;
12042;SDS011;6082;49.306;12.862;2022-07-06T10:41:03;2.70;;;1.80;;
12042;SDS011;6082;49.306;12.862;2022-07-06T10:43:38;1.83;;;1.73;;
12042;SDS011;6082;49.306;12.862;2022-07-06T10:46:08;1.80;;;1.70;;
12042;SDS011;6082;49.306;12.862;2022-07-06T10:48:40;2.63;;;1.40;;
12042;SDS011;6082;49.306;12.862;2022-07-06T10:51:06;1.63;;;1.50;;
12042;SDS011;6082;49.306;12.862;2022-07-06T10:53:34;1.73;;;1.63;;
12042;SDS011;6082;49.306;12.862;2022-07-06T10:56:04;1.60;;;1.40;;
12042;SDS011;6082;49.306;12.862;2022-07-06T11:01:21;1.40;;;1.30;;
12042;SDS011;6082;49.306;12.862;2022-07-06T11:03:47;1.00;;;1.00;;
12042;SDS011;6082;49.306;12.862;2022-07-06T11:06:23;1.10;;;1.00;;
12042;SDS011;6082;49.306;12.862;2022-07-06T11:11:16;1.37;;;1.20;;
12042;SDS011;6082;49.306;12.862;2022-07-06T11:13:50;1.40;;;1.30;;
12042;SDS011;6082;49.306;12.862;2022-07-06T11:16:39;1.23;;;1.03;;
12042;SDS011;6082;49.306;12.862;2022-07-06T11:19:12;1.80;;;1.20;;
12042;SDS011;6082;49.306;12.862;2022-07-06T11:24:21;1.47;;;1.30;;
12042;SDS011;6082;49.306;12.862;2022-07-06T11:26:50;1.00;;;1.00;;
12042;SDS011;6082;49.306;12.862;2022-07-06T11:29:18;1.23;;;1.13;;
12042;SDS011;6082;49.306;12.862;2022-07-06T11:31:47;1.20;;;1.10;;
12042;SDS011;6082;49.306;12.862;2022-07-06T11:34:18;1.30;;;1.20;;
12042;SDS011;6082;49.306;12.862;2022-07-06T11:36:45;1.20;;;1.10;;
12042;SDS011;6082;49.306;12.862;2022-07-06T11:39:11;1.30;;;1.10;;
12042;SDS011;6082;49.306;12.862;2022-07-06T11:41:37;1.83;;;1.20;;
12042;SDS011;6082;49.306;12.862;2022-07-06T11:44:03;1.30;;;1.20;;
12042;SDS011;6082;49.306;12.862;2022-07-06T11:46:30;1.20;;;1.10;;
12042;SDS011;6082;49.306;12.862;2022-07-06T11:48:58;1.23;;;1.13;;
12042;SDS011;6082;49.306;12.862;2022-07-06T11:51:25;1.43;;;0.90;;
12042;SDS011;6082;49.306;12.862;2022-07-06T11:53:53;1.70;;;1.17;;
12042;SDS011;6082;49.306;12.862;2022-07-06T11:56:21;1.17;;;1.00;;
12042;SDS011;6082;49.306;12.862;2022-07-06T11:58:50;1.40;;;1.30;;
12042;SDS011;6082;49.306;12.862;2022-07-06T12:01:17;1.50;;;1.20;;
12042;SDS011;6082;49.306;12.862;2022-07-06T12:03:44;1.27;;;1.17;;
12042;SDS011;6082;49.306;12.862;2022-07-06T12:06:28;1.50;;;1.20;;
12042;SDS011;6082;49.306;12.862;2022-07-06T12:08:55;1.10;;;0.90;;
12042;SDS011;6082;49.306;12.862;2022-07-06T12:11:23;1.40;;;1.30;;
12042;SDS011;6082;49.306;12.862;2022-07-06T12:13:54;1.63;;;1.30;;
12042;SDS011;6082;49.306;12.862;2022-07-06T12:16:33;1.10;;;1.00;;
12042;SDS011;6082;49.306;12.862;2022-07-06T12:19:00;1.30;;;1.20;;
12042;SDS011;6082;49.306;12.862;2022-07-06T12:21:28;1.30;;;1.20;;
12042;SDS011;6082;49.306;12.862;2022-07-06T12:23:54;1.20;;;1.10;;
12042;SDS011;6082;49.306;12.862;2022-07-06T12:26:25;1.10;;;1.00;;
12042;SDS011;6082;49.306;12.862;2022-07-06T12:29:10;1.00;;;0.90;;
12042;SDS011;6082;49.306;12.862;2022-07-06T12:34:13;0.83;;;0.83;;
12042;SDS011;6082;49.306;12.862;2022-07-06T12:37:02;1.57;;;1.10;;
12042;SDS011;6082;49.306;12.862;2022-07-06T12:40:11;1.10;;;1.00;;
12042;SDS011;6082;49.306;12.862;2022-07-06T12:42:26;1.40;;;1.30;;
12042;SDS011;6082;49.306;12.862;2022-07-06T12:44:53;1.57;;;1.30;;
12042;SDS011;6082;49.306;12.862;2022-07-06T12:47:19;1.03;;;1.03;;
12042;SDS011;6082;49.306;12.862;2022-07-06T12:49:48;1.40;;;1.30;;
12042;SDS011;6082;49.306;12.862;2022-07-06T12:52:29;3.13;;;1.20;;
12042;SDS011;6082;49.306;12.862;2022-07-06T12:54:55;1.37;;;1.27;;
12042;SDS011;6082;49.306;12.862;2022-07-06T12:57:25;1.30;;;1.20;;
12042;SDS011;6082;49.306;12.862;2022-07-06T12:59:55;2.33;;;2.07;;
12042;SDS011;6082;49.306;12.862;2022-07-06T13:04:54;1.87;;;1.43;;
12042;SDS011;6082;49.306;12.862;2022-07-06T13:07:25;1.87;;;1.23;;
12042;SDS011;6082;49.306;12.862;2022-07-06T13:09:52;1.37;;;1.27;;
12042;SDS011;6082;49.306;12.862;2022-07-06T13:12:19;2.03;;;1.10;;
12042;SDS011;6082;49.306;12.862;2022-07-06T13:14:46;1.67;;;1.37;;
12042;SDS011;6082;49.306;12.862;2022-07-06T13:17:12;1.17;;;1.10;;
12042;SDS011;6082;49.306;12.862;2022-07-06T13:19:38;1.40;;;1.30;;
12042;SDS011;6082;49.306;12.862;2022-07-06T13:22:04;1.23;;;1.13;;
12042;SDS011;6082;49.306;12.862;2022-07-06T13:24:29;1.40;;;1.20;;
12042;SDS011;6082;49.306;12.862;2022-07-06T13:26:55;1.30;;;1.20;;
12042;SDS011;6082;49.306;12.862;2022-07-06T13:29:22;1.17;;;1.00;;
12042;SDS011;6082;49.306;12.862;2022-07-06T13:31:48;1.20;;;1.00;;
12042;SDS011;6082;49.306;12.862;2022-07-06T13:34:14;1.17;;;1.07;;
12042;SDS011;6082;49.306;12.862;2022-07-06T13:36:40;1.83;;;1.20;;
12042;SDS011;6082;49.306;12.862;2022-07-06T13:39:06;1.27;;;1.17;;
12042;SDS011;6082;49.306;12.862;2022-07-06T13:41:33;1.73;;;1.20;;
12042;SDS011;6082;49.306;12.862;2022-07-06T13:43:59;1.27;;;1.10;;
12042;SDS011;6082;49.306;12.862;2022-07-06T13:46:28;1.10;;;1.00;;
12042;SDS011;6082;49.306;12.862;2022-07-06T13:48:54;1.40;;;1.30;;
12042;SDS011;6082;49.306;12.862;2022-07-06T13:51:21;1.30;;;1.20;;
12042;SDS011;6082;49.306;12.862;2022-07-06T13:53:52;1.30;;;1.00;;
12042;SDS011;6082;49.306;12.862;2022-07-06T13:56:18;1.30;;;1.20;;
12042;SDS011;6082;49.306;12.862;2022-07-06T13:58:44;1.20;;;1.10;;
12042;SDS011;6082;49.306;12.862;2022-07-06T14:01:10;1.10;;;1.00;;
12042;SDS011;6082;49.306;12.862;2022-07-06T14:03:37;1.00;;;1.00;;
12042;SDS011;6082;49.306;12.862;2022-07-06T14:07:04;1.27;;;1.17;;
12042;SDS011;6082;49.306;12.862;2022-07-06T14:09:30;1.20;;;1.07;;
12042;SDS011;6082;49.306;12.862;2022-07-06T14:11:55;2.10;;;1.10;;
12042;SDS011;6082;49.306;12.862;2022-07-06T14:14:21;1.20;;;1.10;;
12042;SDS011;6082;49.306;12.862;2022-07-06T14:16:47;1.27;;;1.17;;
12042;SDS011;6082;49.306;12.862;2022-07-06T14:19:14;1.10;;;1.00;;
12042;SDS011;6082;49.306;12.862;2022-07-06T14:21:40;1.40;;;1.20;;
12042;SDS011;6082;49.306;12.862;2022-07-06T14:24:06;1.20;;;1.10;;
12042;SDS011;6082;49.306;12.862;2022-07-06T14:26:32;1.23;;;1.13;;
12042;SDS011;6082;49.306;12.862;2022-07-06T14:29:01;1.20;;;1.10;;
12042;SDS011;6082;49.306;12.862;2022-07-06T14:31:27;2.03;;;1.47;;
12042;SDS011;6082;49.306;12.862;2022-07-06T14:33:52;0.90;;;0.90;;
12042;SDS011;6082;49.306;12.862;2022-07-06T14:36:18;1.40;;;1.30;;
12042;SDS011;6082;49.306;12.862;2022-07-06T14:38:44;1.70;;;1.30;;
12042;SDS011;6082;49.306;12.862;2022-07-06T14:41:10;1.53;;;1.43;;
12042;SDS011;6082;49.306;12.862;2022-07-06T14:43:36;2.27;;;1.33;;
12042;SDS011;6082;49.306;12.862;2022-07-06T14:46:02;1.30;;;1.20;;
12042;SDS011;6082;49.306;12.862;2022-07-06T14:48:27;0.93;;;0.93;;
12042;SDS011;6082;49.306;12.862;2022-07-06T14:50:53;1.20;;;1.10;;
12042;SDS011;6082;49.306;12.862;2022-07-06T14:53:19;1.27;;;1.17;;
12042;SDS011;6082;49.306;12.862;2022-07-06T14:55:45;1.60;;;1.20;;
12042;SDS011;6082;49.306;12.862;2022-07-06T14:58:12;1.23;;;1.13;;
12042;SDS011;6082;49.306;12.862;2022-07-06T15:00:38;1.20;;;1.10;;
12042;SDS011;6082;49.306;12.862;2022-07-06T15:03:04;1.47;;;1.13;;
12042;SDS011;6082;49.306;12.862;2022-07-06T15:05:29;1.20;;;1.10;;